CGNOP KPDK-KLAL
Flight info
| Callsign | CGNOP |
|---|---|
| Flight time | 3h 25m |
| Altitude | 5000 |
| Route | SOONE AYS VARZE |
| Aircraft | P28A/L-G/S |
Departure
| Time | 2026-04-21 21:15 |
|---|---|
| Airport | DeKalb Peachtree Airport (KPDK) |
Arrival
| Time | 2026-04-22 00:41 |
|---|---|
| Airport | Lakeland Linder International Airport (KLAL) |
| Time | Latitude | Longitude | Altitude | Speed | Heading |
|---|---|---|---|---|---|
| 2026-04-21 20:44 | 33.87798 | -84.30408 | 1006 ft | 0 kts | 63° |
| 2026-04-21 21:05 | 33.87801 | -84.30401 | 1006 ft | 7 kts | 77° |
| 2026-04-21 21:05 | 33.87768 | -84.30368 | 1006 ft | 7 kts | 158° |
| 2026-04-21 21:05 | 33.87725 | -84.30348 | 1006 ft | 7 kts | 158° |
| 2026-04-21 21:06 | 33.87682 | -84.30327 | 1006 ft | 7 kts | 158° |
| 2026-04-21 21:06 | 33.87638 | -84.30306 | 1006 ft | 7 kts | 158° |
| 2026-04-21 21:06 | 33.87596 | -84.30286 | 1006 ft | 7 kts | 158° |
| 2026-04-21 21:06 | 33.87589 | -84.30250 | 1006 ft | 7 kts | 22° |
| 2026-04-21 21:07 | 33.87667 | -84.30213 | 1006 ft | 13 kts | 28° |
| 2026-04-21 21:07 | 33.87652 | -84.30171 | 1006 ft | 7 kts | 157° |
| 2026-04-21 21:07 | 33.87609 | -84.30149 | 1006 ft | 7 kts | 156° |
| 2026-04-21 21:07 | 33.87567 | -84.30127 | 1006 ft | 7 kts | 156° |
| 2026-04-21 21:08 | 33.87507 | -84.30096 | 1006 ft | 13 kts | 157° |
| 2026-04-21 21:08 | 33.87420 | -84.30054 | 1006 ft | 13 kts | 158° |
| 2026-04-21 21:08 | 33.87334 | -84.30011 | 1006 ft | 13 kts | 157° |
| 2026-04-21 21:08 | 33.87286 | -84.29999 | 1006 ft | 7 kts | 201° |
| 2026-04-21 21:09 | 33.87285 | -84.29999 | 1006 ft | 0 kts | 205° |
| 2026-04-21 21:10 | 33.87272 | -84.30023 | 1006 ft | 7 kts | 256° |
| 2026-04-21 21:10 | 33.87289 | -84.30063 | 1006 ft | 0 kts | 338° |
| 2026-04-21 21:10 | 33.87289 | -84.30061 | 1006 ft | 0 kts | 336° |
| 2026-04-21 21:12 | 33.87289 | -84.30062 | 1006 ft | 0 kts | 336° |
| 2026-04-21 21:12 | 33.87290 | -84.30062 | 1006 ft | 0 kts | 336° |
| 2026-04-21 21:13 | 33.87291 | -84.30062 | 1006 ft | 3 kts | 335° |
| 2026-04-21 21:13 | 33.87320 | -84.30075 | 1006 ft | 0 kts | 334° |
| 2026-04-21 21:14 | 33.87356 | -84.30096 | 1006 ft | 24 kts | 345° |
| 2026-04-21 21:14 | 33.87642 | -84.30236 | 1006 ft | 63 kts | 340° |
| 2026-04-21 21:14 | 33.88068 | -84.30446 | 1170 ft | 65 kts | 335° |
| 2026-04-21 21:15 | 33.88487 | -84.30665 | 1334 ft | 67 kts | 338° |
| 2026-04-21 21:15 | 33.89003 | -84.30911 | 1375 ft | 69 kts | 340° |
| 2026-04-21 21:15 | 33.89335 | -84.31215 | 1627 ft | 61 kts | 298° |
| 2026-04-21 21:15 | 33.89383 | -84.31717 | 1784 ft | 60 kts | 250° |
| 2026-04-21 21:16 | 33.89056 | -84.32046 | 1896 ft | 67 kts | 196° |
| 2026-04-21 21:16 | 33.88514 | -84.31999 | 1950 ft | 86 kts | 170° |
| 2026-04-21 21:16 | 33.87912 | -84.31831 | 2152 ft | 83 kts | 169° |
| 2026-04-21 21:16 | 33.87318 | -84.31667 | 2262 ft | 94 kts | 172° |
| 2026-04-21 21:17 | 33.86649 | -84.31490 | 2320 ft | 104 kts | 173° |
| 2026-04-21 21:17 | 33.85938 | -84.31303 | 2498 ft | 97 kts | 172° |
| 2026-04-21 21:17 | 33.85264 | -84.31123 | 2626 ft | 98 kts | 172° |
| 2026-04-21 21:17 | 33.84633 | -84.30971 | 2859 ft | 89 kts | 179° |
| 2026-04-21 21:18 | 33.84121 | -84.31289 | 3091 ft | 82 kts | 225° |
| 2026-04-21 21:18 | 33.83701 | -84.31707 | 3326 ft | 74 kts | 220° |
| 2026-04-21 21:18 | 33.83328 | -84.32077 | 3539 ft | 65 kts | 219° |
| 2026-04-21 21:18 | 33.83103 | -84.32313 | 3639 ft | 65 kts | 219° |
| 2026-04-21 21:19 | 33.82641 | -84.32796 | 3816 ft | 67 kts | 220° |
| 2026-04-21 21:19 | 33.82288 | -84.33159 | 3963 ft | 67 kts | 219° |
| 2026-04-21 21:19 | 33.81930 | -84.33529 | 4085 ft | 71 kts | 220° |
| 2026-04-21 21:19 | 33.81531 | -84.33931 | 4188 ft | 79 kts | 221° |
| 2026-04-21 21:20 | 33.81092 | -84.34361 | 4313 ft | 83 kts | 222° |
| 2026-04-21 21:20 | 33.80629 | -84.34804 | 4446 ft | 87 kts | 222° |
| 2026-04-21 21:20 | 33.80129 | -84.35275 | 4520 ft | 96 kts | 224° |
| 2026-04-21 21:20 | 33.79573 | -84.35803 | 4530 ft | 107 kts | 225° |
| 2026-04-21 21:21 | 33.78971 | -84.36393 | 4519 ft | 115 kts | 227° |
| 2026-04-21 21:21 | 33.78358 | -84.37029 | 4506 ft | 118 kts | 227° |
| 2026-04-21 21:21 | 33.77787 | -84.37743 | 4493 ft | 120 kts | 234° |
| 2026-04-21 21:21 | 33.77129 | -84.38358 | 4508 ft | 119 kts | 219° |
| 2026-04-21 21:22 | 33.76668 | -84.38720 | 4516 ft | 120 kts | 217° |
| 2026-04-21 21:22 | 33.75713 | -84.39419 | 4503 ft | 123 kts | 214° |
| 2026-04-21 21:22 | 33.74954 | -84.39917 | 4497 ft | 124 kts | 210° |
| 2026-04-21 21:22 | 33.74417 | -84.40185 | 4500 ft | 124 kts | 204° |
| 2026-04-21 21:23 | 33.73597 | -84.40493 | 4504 ft | 124 kts | 200° |
| 2026-04-21 21:23 | 33.72765 | -84.40767 | 4502 ft | 124 kts | 199° |
| 2026-04-21 21:23 | 33.71927 | -84.41027 | 4503 ft | 124 kts | 197° |
| 2026-04-21 21:23 | 33.71089 | -84.41282 | 4501 ft | 125 kts | 197° |
| 2026-04-21 21:24 | 33.70238 | -84.41486 | 4497 ft | 125 kts | 189° |
| 2026-04-21 21:24 | 33.69375 | -84.41563 | 4529 ft | 122 kts | 186° |
| 2026-04-21 21:24 | 33.68579 | -84.41613 | 4723 ft | 109 kts | 185° |
| 2026-04-21 21:24 | 33.67836 | -84.41648 | 4879 ft | 104 kts | 184° |
| 2026-04-21 21:25 | 33.67117 | -84.41673 | 4983 ft | 106 kts | 184° |
| 2026-04-21 21:25 | 33.66348 | -84.41695 | 5018 ft | 113 kts | 185° |
| 2026-04-21 21:25 | 33.65535 | -84.41721 | 5015 ft | 120 kts | 185° |
| 2026-04-21 21:25 | 33.64687 | -84.41753 | 5008 ft | 124 kts | 186° |
| 2026-04-21 21:26 | 33.63827 | -84.41787 | 5004 ft | 126 kts | 186° |
| 2026-04-21 21:26 | 33.62940 | -84.41825 | 5002 ft | 127 kts | 186° |
| 2026-04-21 21:26 | 33.62065 | -84.41862 | 5001 ft | 127 kts | 186° |
| 2026-04-21 21:26 | 33.61169 | -84.41901 | 5000 ft | 127 kts | 186° |
| 2026-04-21 21:27 | 33.60295 | -84.41939 | 5000 ft | 127 kts | 186° |
| 2026-04-21 21:27 | 33.59409 | -84.41968 | 4994 ft | 128 kts | 182° |
| 2026-04-21 21:27 | 33.58549 | -84.41719 | 5009 ft | 127 kts | 165° |
| 2026-04-21 21:27 | 33.57696 | -84.41428 | 5005 ft | 128 kts | 167° |
| 2026-04-21 21:28 | 33.56844 | -84.41113 | 5003 ft | 128 kts | 159° |
| 2026-04-21 21:28 | 33.56008 | -84.40735 | 5000 ft | 129 kts | 160° |
| 2026-04-21 21:28 | 33.54315 | -84.40021 | 5000 ft | 129 kts | 161° |
| 2026-04-21 21:29 | 33.53465 | -84.39666 | 5000 ft | 129 kts | 161° |
| 2026-04-21 21:29 | 33.52618 | -84.39312 | 5000 ft | 129 kts | 161° |
| 2026-04-21 21:29 | 33.51769 | -84.38958 | 5000 ft | 129 kts | 161° |
| 2026-04-21 21:29 | 33.50921 | -84.38603 | 5000 ft | 129 kts | 161° |
| 2026-04-21 21:30 | 33.50074 | -84.38248 | 5000 ft | 129 kts | 161° |
| 2026-04-21 21:30 | 33.49228 | -84.37894 | 5000 ft | 129 kts | 161° |
| 2026-04-21 21:30 | 33.48379 | -84.37538 | 5000 ft | 129 kts | 161° |
| 2026-04-21 21:30 | 33.47531 | -84.37184 | 5000 ft | 129 kts | 161° |
| 2026-04-21 21:31 | 33.46683 | -84.36829 | 5000 ft | 129 kts | 161° |
| 2026-04-21 21:31 | 33.45835 | -84.36474 | 5000 ft | 129 kts | 161° |
| 2026-04-21 21:31 | 33.44985 | -84.36118 | 5000 ft | 129 kts | 161° |
| 2026-04-21 21:31 | 33.44137 | -84.35764 | 5000 ft | 129 kts | 161° |
| 2026-04-21 21:32 | 33.43284 | -84.35407 | 5000 ft | 129 kts | 161° |
| 2026-04-21 21:32 | 33.42440 | -84.35054 | 5000 ft | 129 kts | 161° |
| 2026-04-21 21:32 | 33.41589 | -84.34698 | 5000 ft | 129 kts | 161° |
| 2026-04-21 21:32 | 33.40738 | -84.34343 | 5000 ft | 129 kts | 161° |
| 2026-04-21 21:33 | 33.39890 | -84.33988 | 5000 ft | 129 kts | 161° |
| 2026-04-21 21:33 | 33.39041 | -84.33634 | 5000 ft | 129 kts | 161° |
| 2026-04-21 21:33 | 33.38189 | -84.33278 | 5000 ft | 129 kts | 161° |
| 2026-04-21 21:33 | 33.37337 | -84.32922 | 5000 ft | 129 kts | 161° |
| 2026-04-21 21:34 | 33.36490 | -84.32569 | 5000 ft | 129 kts | 161° |
| 2026-04-21 21:34 | 33.35636 | -84.32212 | 5000 ft | 129 kts | 161° |
| 2026-04-21 21:34 | 33.34788 | -84.31858 | 5000 ft | 129 kts | 161° |
| 2026-04-21 21:34 | 33.33935 | -84.31502 | 5000 ft | 129 kts | 161° |
| 2026-04-21 21:35 | 33.33085 | -84.31148 | 5000 ft | 129 kts | 161° |
| 2026-04-21 21:35 | 33.32236 | -84.30794 | 5000 ft | 129 kts | 161° |
| 2026-04-21 21:35 | 33.31382 | -84.30437 | 5000 ft | 129 kts | 161° |
| 2026-04-21 21:35 | 33.30523 | -84.30079 | 5000 ft | 129 kts | 161° |
| 2026-04-21 21:36 | 33.29671 | -84.29724 | 5000 ft | 129 kts | 161° |
| 2026-04-21 21:36 | 33.28821 | -84.29370 | 5000 ft | 129 kts | 161° |
| 2026-04-21 21:36 | 33.27969 | -84.29015 | 5000 ft | 129 kts | 161° |
| 2026-04-21 21:36 | 33.27119 | -84.28660 | 5000 ft | 129 kts | 161° |
| 2026-04-21 21:37 | 33.26278 | -84.28310 | 5000 ft | 129 kts | 161° |
| 2026-04-21 21:37 | 33.25415 | -84.27950 | 5000 ft | 129 kts | 161° |
| 2026-04-21 21:37 | 33.24576 | -84.27601 | 5000 ft | 129 kts | 161° |
| 2026-04-21 21:37 | 33.23713 | -84.27241 | 5000 ft | 129 kts | 161° |
| 2026-04-21 21:38 | 33.22862 | -84.26887 | 5000 ft | 130 kts | 161° |
| 2026-04-21 21:38 | 33.22012 | -84.26533 | 5000 ft | 130 kts | 161° |
| 2026-04-21 21:38 | 33.21160 | -84.26178 | 5000 ft | 130 kts | 161° |
| 2026-04-21 21:38 | 33.20309 | -84.25824 | 5000 ft | 130 kts | 161° |
| 2026-04-21 21:39 | 33.19459 | -84.25470 | 5000 ft | 130 kts | 161° |
| 2026-04-21 21:39 | 33.18617 | -84.25119 | 5000 ft | 130 kts | 161° |
| 2026-04-21 21:39 | 33.17753 | -84.24760 | 5000 ft | 130 kts | 161° |
| 2026-04-21 21:39 | 33.16897 | -84.24403 | 5000 ft | 130 kts | 161° |
| 2026-04-21 21:40 | 33.16055 | -84.24052 | 5000 ft | 130 kts | 161° |
| 2026-04-21 21:40 | 33.15202 | -84.23697 | 5000 ft | 130 kts | 161° |
| 2026-04-21 21:40 | 33.14341 | -84.23338 | 5000 ft | 130 kts | 161° |
| 2026-04-21 21:40 | 33.13490 | -84.22983 | 5000 ft | 130 kts | 161° |
| 2026-04-21 21:41 | 33.12649 | -84.22632 | 5000 ft | 130 kts | 161° |
| 2026-04-21 21:41 | 33.11796 | -84.22275 | 5000 ft | 130 kts | 161° |
| 2026-04-21 21:41 | 33.10945 | -84.21918 | 5000 ft | 130 kts | 161° |
| 2026-04-21 21:41 | 33.10089 | -84.21558 | 5000 ft | 130 kts | 161° |
| 2026-04-21 21:42 | 33.09240 | -84.21198 | 5000 ft | 130 kts | 161° |
| 2026-04-21 21:42 | 33.08395 | -84.20835 | 5000 ft | 130 kts | 160° |
| 2026-04-21 21:42 | 33.07554 | -84.20437 | 4998 ft | 130 kts | 155° |
| 2026-04-21 21:42 | 33.06800 | -84.19845 | 5003 ft | 130 kts | 143° |
| 2026-04-21 21:43 | 33.06085 | -84.19187 | 5001 ft | 130 kts | 141° |
| 2026-04-21 21:43 | 33.05376 | -84.18520 | 5000 ft | 130 kts | 141° |
| 2026-04-21 21:43 | 33.04666 | -84.17852 | 5000 ft | 130 kts | 141° |
| 2026-04-21 21:43 | 33.03955 | -84.17185 | 5000 ft | 130 kts | 141° |
| 2026-04-21 21:44 | 33.03242 | -84.16518 | 5000 ft | 130 kts | 141° |
| 2026-04-21 21:44 | 33.02529 | -84.15850 | 5000 ft | 130 kts | 141° |
| 2026-04-21 21:44 | 33.01817 | -84.15184 | 5000 ft | 130 kts | 141° |
| 2026-04-21 21:44 | 33.01113 | -84.14526 | 5000 ft | 130 kts | 141° |
| 2026-04-21 21:45 | 33.00400 | -84.13860 | 5000 ft | 130 kts | 141° |
| 2026-04-21 21:45 | 32.99683 | -84.13191 | 5000 ft | 131 kts | 141° |
| 2026-04-21 21:45 | 32.98972 | -84.12527 | 5000 ft | 131 kts | 142° |
| 2026-04-21 21:45 | 32.98241 | -84.11845 | 5000 ft | 131 kts | 142° |
| 2026-04-21 21:46 | 32.97526 | -84.11177 | 5000 ft | 131 kts | 142° |
| 2026-04-21 21:46 | 32.96818 | -84.10517 | 5000 ft | 131 kts | 142° |
| 2026-04-21 21:46 | 32.96094 | -84.09841 | 5000 ft | 131 kts | 142° |
| 2026-04-21 21:46 | 32.95378 | -84.09173 | 5000 ft | 131 kts | 141° |
| 2026-04-21 21:47 | 32.94662 | -84.08506 | 5000 ft | 131 kts | 141° |
| 2026-04-21 21:47 | 32.93946 | -84.07838 | 5000 ft | 131 kts | 141° |
| 2026-04-21 21:47 | 32.93237 | -84.07177 | 5000 ft | 131 kts | 141° |
| 2026-04-21 21:47 | 32.92514 | -84.06503 | 5000 ft | 131 kts | 141° |
| 2026-04-21 21:48 | 32.91806 | -84.05843 | 5000 ft | 131 kts | 141° |
| 2026-04-21 21:48 | 32.91090 | -84.05176 | 5000 ft | 131 kts | 141° |
| 2026-04-21 21:48 | 32.90375 | -84.04510 | 5000 ft | 131 kts | 142° |
| 2026-04-21 21:48 | 32.89657 | -84.03841 | 5000 ft | 131 kts | 142° |
| 2026-04-21 21:49 | 32.88942 | -84.03176 | 5000 ft | 131 kts | 142° |
| 2026-04-21 21:49 | 32.88226 | -84.02509 | 5000 ft | 131 kts | 142° |
| 2026-04-21 21:49 | 32.87508 | -84.01841 | 5000 ft | 131 kts | 141° |
| 2026-04-21 21:49 | 32.86792 | -84.01175 | 5000 ft | 131 kts | 142° |
| 2026-04-21 21:50 | 32.86074 | -84.00507 | 5000 ft | 131 kts | 142° |
| 2026-04-21 21:50 | 32.85356 | -83.99839 | 5000 ft | 131 kts | 142° |
| 2026-04-21 21:50 | 32.84635 | -83.99169 | 5000 ft | 131 kts | 142° |
| 2026-04-21 21:50 | 32.83918 | -83.98502 | 5000 ft | 131 kts | 142° |
| 2026-04-21 21:51 | 32.83198 | -83.97833 | 5000 ft | 131 kts | 142° |
| 2026-04-21 21:51 | 32.82478 | -83.97163 | 5000 ft | 131 kts | 142° |
| 2026-04-21 21:51 | 32.81768 | -83.96504 | 5000 ft | 131 kts | 142° |
| 2026-04-21 21:51 | 32.81051 | -83.95838 | 5000 ft | 131 kts | 142° |
| 2026-04-21 21:52 | 32.80328 | -83.95167 | 5000 ft | 131 kts | 142° |
| 2026-04-21 21:52 | 32.79611 | -83.94501 | 5000 ft | 131 kts | 142° |
| 2026-04-21 21:52 | 32.78891 | -83.93833 | 5000 ft | 131 kts | 142° |
| 2026-04-21 21:52 | 32.78171 | -83.93165 | 5000 ft | 131 kts | 142° |
| 2026-04-21 21:53 | 32.77452 | -83.92497 | 5000 ft | 131 kts | 142° |
| 2026-04-21 21:53 | 32.76733 | -83.91830 | 5000 ft | 131 kts | 142° |
| 2026-04-21 21:53 | 32.76014 | -83.91163 | 5000 ft | 131 kts | 142° |
| 2026-04-21 21:53 | 32.75295 | -83.90496 | 5000 ft | 131 kts | 142° |
| 2026-04-21 21:54 | 32.74575 | -83.89828 | 5000 ft | 131 kts | 142° |
| 2026-04-21 21:54 | 32.73852 | -83.89158 | 5000 ft | 131 kts | 142° |
| 2026-04-21 21:54 | 32.73131 | -83.88490 | 5000 ft | 132 kts | 142° |
| 2026-04-21 21:54 | 32.72408 | -83.87820 | 5000 ft | 132 kts | 142° |
| 2026-04-21 21:55 | 32.71684 | -83.87150 | 5000 ft | 132 kts | 142° |
| 2026-04-21 21:55 | 32.70974 | -83.86493 | 5000 ft | 132 kts | 142° |
| 2026-04-21 21:55 | 32.70248 | -83.85820 | 5000 ft | 132 kts | 142° |
| 2026-04-21 21:55 | 32.69523 | -83.85149 | 5000 ft | 132 kts | 142° |
| 2026-04-21 21:56 | 32.68793 | -83.84473 | 5000 ft | 132 kts | 142° |
| 2026-04-21 21:56 | 32.68314 | -83.84030 | 5000 ft | 132 kts | 142° |
| 2026-04-21 21:56 | 32.67589 | -83.83359 | 5000 ft | 132 kts | 142° |
| 2026-04-21 21:56 | 32.66622 | -83.82465 | 5000 ft | 132 kts | 142° |
| 2026-04-21 21:57 | 32.66140 | -83.82020 | 5000 ft | 132 kts | 142° |
| 2026-04-21 21:57 | 32.65180 | -83.81132 | 5000 ft | 132 kts | 142° |
| 2026-04-21 21:57 | 32.64693 | -83.80681 | 5000 ft | 132 kts | 142° |
| 2026-04-21 21:57 | 32.63733 | -83.79794 | 5000 ft | 132 kts | 142° |
| 2026-04-21 21:58 | 32.63244 | -83.79343 | 5000 ft | 132 kts | 142° |
| 2026-04-21 21:58 | 32.62526 | -83.78679 | 5000 ft | 132 kts | 142° |
| 2026-04-21 21:58 | 32.61802 | -83.78010 | 5000 ft | 132 kts | 142° |
| 2026-04-21 21:58 | 32.61076 | -83.77339 | 5000 ft | 132 kts | 142° |
| 2026-04-21 21:59 | 32.60350 | -83.76670 | 5000 ft | 132 kts | 142° |
| 2026-04-21 21:59 | 32.59626 | -83.76001 | 5000 ft | 132 kts | 142° |
| 2026-04-21 21:59 | 32.58902 | -83.75332 | 5000 ft | 132 kts | 142° |
| 2026-04-21 21:59 | 32.58177 | -83.74663 | 5000 ft | 132 kts | 142° |
| 2026-04-21 22:00 | 32.57451 | -83.73994 | 5000 ft | 132 kts | 142° |
| 2026-04-21 22:00 | 32.56726 | -83.73325 | 5000 ft | 132 kts | 142° |
| 2026-04-21 22:00 | 32.56011 | -83.72665 | 5000 ft | 132 kts | 142° |
| 2026-04-21 22:00 | 32.55284 | -83.71996 | 5000 ft | 132 kts | 142° |
| 2026-04-21 22:01 | 32.54562 | -83.71330 | 5000 ft | 132 kts | 142° |
| 2026-04-21 22:01 | 32.53836 | -83.70661 | 5000 ft | 132 kts | 142° |
| 2026-04-21 22:01 | 32.53112 | -83.69993 | 5000 ft | 132 kts | 142° |
| 2026-04-21 22:01 | 32.52386 | -83.69324 | 5000 ft | 132 kts | 142° |
| 2026-04-21 22:02 | 32.51663 | -83.68659 | 5000 ft | 132 kts | 142° |
| 2026-04-21 22:02 | 32.50936 | -83.67989 | 5000 ft | 132 kts | 142° |
| 2026-04-21 22:02 | 32.50211 | -83.67322 | 5000 ft | 132 kts | 142° |
| 2026-04-21 22:02 | 32.49492 | -83.66659 | 5000 ft | 132 kts | 142° |
| 2026-04-21 22:03 | 32.48759 | -83.65985 | 5000 ft | 132 kts | 142° |
| 2026-04-21 22:03 | 32.48032 | -83.65316 | 5000 ft | 132 kts | 142° |
| 2026-04-21 22:03 | 32.47306 | -83.64649 | 5000 ft | 132 kts | 142° |
| 2026-04-21 22:03 | 32.46579 | -83.63980 | 5000 ft | 132 kts | 142° |
| 2026-04-21 22:04 | 32.45855 | -83.63315 | 5000 ft | 132 kts | 142° |
| 2026-04-21 22:04 | 32.45139 | -83.62656 | 5000 ft | 132 kts | 142° |
| 2026-04-21 22:04 | 32.44413 | -83.61989 | 5000 ft | 132 kts | 142° |
| 2026-04-21 22:04 | 32.43686 | -83.61320 | 5000 ft | 132 kts | 142° |
| 2026-04-21 22:05 | 32.42961 | -83.60655 | 5000 ft | 132 kts | 142° |
| 2026-04-21 22:05 | 32.42235 | -83.59988 | 5000 ft | 132 kts | 142° |
| 2026-04-21 22:05 | 32.41506 | -83.59318 | 5000 ft | 132 kts | 142° |
| 2026-04-21 22:05 | 32.40779 | -83.58651 | 5000 ft | 132 kts | 142° |
| 2026-04-21 22:06 | 32.40055 | -83.57986 | 5000 ft | 132 kts | 142° |
| 2026-04-21 22:06 | 32.39328 | -83.57319 | 5000 ft | 132 kts | 142° |
| 2026-04-21 22:06 | 32.38602 | -83.56653 | 5000 ft | 132 kts | 142° |
| 2026-04-21 22:06 | 32.37875 | -83.55986 | 5000 ft | 132 kts | 142° |
| 2026-04-21 22:07 | 32.37150 | -83.55321 | 5000 ft | 132 kts | 142° |
| 2026-04-21 22:07 | 32.36424 | -83.54655 | 5000 ft | 132 kts | 142° |
| 2026-04-21 22:07 | 32.35698 | -83.53989 | 5000 ft | 132 kts | 142° |
| 2026-04-21 22:07 | 32.34971 | -83.53323 | 5000 ft | 132 kts | 142° |
| 2026-04-21 22:08 | 32.34244 | -83.52657 | 5000 ft | 132 kts | 142° |
| 2026-04-21 22:08 | 32.33517 | -83.51991 | 5000 ft | 132 kts | 142° |
| 2026-04-21 22:08 | 32.32791 | -83.51326 | 5000 ft | 132 kts | 142° |
| 2026-04-21 22:08 | 32.32064 | -83.50660 | 5000 ft | 132 kts | 142° |
| 2026-04-21 22:09 | 32.31338 | -83.49995 | 5000 ft | 132 kts | 142° |
| 2026-04-21 22:09 | 32.30612 | -83.49330 | 5000 ft | 132 kts | 142° |
| 2026-04-21 22:09 | 32.29892 | -83.48671 | 5000 ft | 132 kts | 142° |
| 2026-04-21 22:09 | 32.29163 | -83.48005 | 5000 ft | 132 kts | 142° |
| 2026-04-21 22:10 | 32.28437 | -83.47340 | 5000 ft | 132 kts | 142° |
| 2026-04-21 22:10 | 32.27710 | -83.46675 | 5000 ft | 132 kts | 142° |
| 2026-04-21 22:10 | 32.26984 | -83.46011 | 5000 ft | 132 kts | 142° |
| 2026-04-21 22:10 | 32.26257 | -83.45346 | 5000 ft | 132 kts | 142° |
| 2026-04-21 22:11 | 32.25529 | -83.44681 | 5000 ft | 132 kts | 142° |
| 2026-04-21 22:11 | 32.24802 | -83.44017 | 5000 ft | 132 kts | 142° |
| 2026-04-21 22:11 | 32.24075 | -83.43352 | 5000 ft | 132 kts | 142° |
| 2026-04-21 22:11 | 32.23345 | -83.42685 | 5000 ft | 132 kts | 142° |
| 2026-04-21 22:12 | 32.22618 | -83.42021 | 5000 ft | 132 kts | 142° |
| 2026-04-21 22:12 | 32.21891 | -83.41357 | 5000 ft | 132 kts | 142° |
| 2026-04-21 22:12 | 32.21164 | -83.40693 | 5000 ft | 132 kts | 142° |
| 2026-04-21 22:12 | 32.20437 | -83.40030 | 5000 ft | 132 kts | 142° |
| 2026-04-21 22:13 | 32.19707 | -83.39364 | 5000 ft | 132 kts | 142° |
| 2026-04-21 22:13 | 32.18985 | -83.38706 | 4998 ft | 129 kts | 143° |
| 2026-04-21 22:13 | 32.18289 | -83.38072 | 4995 ft | 127 kts | 142° |
| 2026-04-21 22:13 | 32.17591 | -83.37433 | 4996 ft | 125 kts | 142° |
| 2026-04-21 22:14 | 32.16906 | -83.36803 | 4998 ft | 124 kts | 142° |
| 2026-04-21 22:14 | 32.16237 | -83.36189 | 4999 ft | 123 kts | 142° |
| 2026-04-21 22:14 | 32.15560 | -83.35567 | 4999 ft | 123 kts | 142° |
| 2026-04-21 22:14 | 32.14882 | -83.34948 | 5000 ft | 123 kts | 142° |
| 2026-04-21 22:15 | 32.14206 | -83.34330 | 5000 ft | 123 kts | 142° |
| 2026-04-21 22:15 | 32.13528 | -83.33712 | 5000 ft | 123 kts | 142° |
| 2026-04-21 22:15 | 32.12853 | -83.33096 | 5000 ft | 123 kts | 142° |
| 2026-04-21 22:15 | 32.12176 | -83.32479 | 5000 ft | 123 kts | 142° |
| 2026-04-21 22:16 | 32.11499 | -83.31863 | 5000 ft | 123 kts | 142° |
| 2026-04-21 22:16 | 32.10822 | -83.31247 | 5000 ft | 123 kts | 142° |
| 2026-04-21 22:16 | 32.10147 | -83.30632 | 5000 ft | 123 kts | 142° |
| 2026-04-21 22:16 | 32.09475 | -83.30021 | 5000 ft | 123 kts | 142° |
| 2026-04-21 22:17 | 32.08799 | -83.29405 | 5000 ft | 123 kts | 142° |
| 2026-04-21 22:17 | 32.08122 | -83.28790 | 5000 ft | 123 kts | 142° |
| 2026-04-21 22:17 | 32.07445 | -83.28174 | 5000 ft | 123 kts | 142° |
| 2026-04-21 22:17 | 32.06766 | -83.27557 | 5000 ft | 123 kts | 142° |
| 2026-04-21 22:18 | 32.06089 | -83.26941 | 5000 ft | 123 kts | 142° |
| 2026-04-21 22:18 | 32.05412 | -83.26326 | 5000 ft | 123 kts | 142° |
| 2026-04-21 22:18 | 32.04733 | -83.25709 | 5000 ft | 123 kts | 142° |
| 2026-04-21 22:18 | 32.04055 | -83.25093 | 5000 ft | 123 kts | 142° |
| 2026-04-21 22:19 | 32.03387 | -83.24486 | 5000 ft | 123 kts | 142° |
| 2026-04-21 22:19 | 32.02702 | -83.23864 | 5000 ft | 123 kts | 142° |
| 2026-04-21 22:19 | 32.02033 | -83.23256 | 5000 ft | 123 kts | 142° |
| 2026-04-21 22:19 | 32.01349 | -83.22635 | 5000 ft | 123 kts | 142° |
| 2026-04-21 22:20 | 32.00681 | -83.22029 | 5000 ft | 123 kts | 142° |
| 2026-04-21 22:20 | 32.00002 | -83.21412 | 5000 ft | 123 kts | 142° |
| 2026-04-21 22:20 | 31.99324 | -83.20797 | 5000 ft | 123 kts | 142° |
| 2026-04-21 22:20 | 31.98649 | -83.20184 | 5000 ft | 123 kts | 142° |
| 2026-04-21 22:21 | 31.97971 | -83.19569 | 5000 ft | 123 kts | 142° |
| 2026-04-21 22:21 | 31.97290 | -83.18952 | 5000 ft | 123 kts | 142° |
| 2026-04-21 22:21 | 31.96614 | -83.18339 | 5000 ft | 123 kts | 142° |
| 2026-04-21 22:21 | 31.95932 | -83.17721 | 5000 ft | 123 kts | 142° |
| 2026-04-21 22:22 | 31.95253 | -83.17106 | 5000 ft | 123 kts | 142° |
| 2026-04-21 22:22 | 31.94575 | -83.16492 | 5000 ft | 123 kts | 142° |
| 2026-04-21 22:22 | 31.93896 | -83.15876 | 5000 ft | 123 kts | 142° |
| 2026-04-21 22:22 | 31.93216 | -83.15261 | 5000 ft | 123 kts | 142° |
| 2026-04-21 22:23 | 31.92538 | -83.14646 | 5000 ft | 123 kts | 142° |
| 2026-04-21 22:23 | 31.91859 | -83.14032 | 5000 ft | 123 kts | 143° |
| 2026-04-21 22:23 | 31.91189 | -83.13425 | 5000 ft | 123 kts | 143° |
| 2026-04-21 22:23 | 31.90509 | -83.12809 | 5000 ft | 123 kts | 143° |
| 2026-04-21 22:24 | 31.89832 | -83.12197 | 5000 ft | 123 kts | 143° |
| 2026-04-21 22:24 | 31.89151 | -83.11581 | 5000 ft | 123 kts | 143° |
| 2026-04-21 22:24 | 31.88472 | -83.10966 | 5000 ft | 123 kts | 143° |
| 2026-04-21 22:24 | 31.87796 | -83.10354 | 5000 ft | 123 kts | 143° |
| 2026-04-21 22:25 | 31.87115 | -83.09739 | 5000 ft | 123 kts | 143° |
| 2026-04-21 22:25 | 31.86435 | -83.09124 | 5000 ft | 123 kts | 143° |
| 2026-04-21 22:25 | 31.85755 | -83.08510 | 5000 ft | 123 kts | 143° |
| 2026-04-21 22:25 | 31.85074 | -83.07894 | 5000 ft | 123 kts | 143° |
| 2026-04-21 22:26 | 31.84393 | -83.07279 | 5000 ft | 123 kts | 143° |
| 2026-04-21 22:26 | 31.83716 | -83.06667 | 5000 ft | 123 kts | 143° |
| 2026-04-21 22:26 | 31.83036 | -83.06053 | 5000 ft | 123 kts | 143° |
| 2026-04-21 22:26 | 31.82364 | -83.05446 | 5000 ft | 123 kts | 143° |
| 2026-04-21 22:27 | 31.81678 | -83.04826 | 5000 ft | 123 kts | 143° |
| 2026-04-21 22:27 | 31.80998 | -83.04212 | 5000 ft | 123 kts | 143° |
| 2026-04-21 22:27 | 31.80324 | -83.03604 | 5000 ft | 123 kts | 143° |
| 2026-04-21 22:27 | 31.79645 | -83.02992 | 5000 ft | 123 kts | 143° |
| 2026-04-21 22:28 | 31.78965 | -83.02378 | 5000 ft | 123 kts | 143° |
| 2026-04-21 22:28 | 31.78287 | -83.01766 | 5000 ft | 123 kts | 143° |
| 2026-04-21 22:28 | 31.77607 | -83.01153 | 5000 ft | 123 kts | 143° |
| 2026-04-21 22:28 | 31.76927 | -83.00540 | 5000 ft | 123 kts | 143° |
| 2026-04-21 22:29 | 31.76246 | -82.99926 | 5000 ft | 123 kts | 143° |
| 2026-04-21 22:29 | 31.75566 | -82.99313 | 5000 ft | 123 kts | 143° |
| 2026-04-21 22:29 | 31.74885 | -82.98699 | 5000 ft | 123 kts | 143° |
| 2026-04-21 22:29 | 31.74202 | -82.98084 | 5000 ft | 123 kts | 143° |
| 2026-04-21 22:30 | 31.73522 | -82.97471 | 5000 ft | 123 kts | 143° |
| 2026-04-21 22:30 | 31.72850 | -82.96866 | 5000 ft | 123 kts | 143° |
| 2026-04-21 22:30 | 31.72169 | -82.96253 | 5000 ft | 123 kts | 143° |
| 2026-04-21 22:30 | 31.71489 | -82.95640 | 5000 ft | 123 kts | 143° |
| 2026-04-21 22:31 | 31.70805 | -82.95025 | 5000 ft | 123 kts | 143° |
| 2026-04-21 22:31 | 31.70127 | -82.94414 | 5000 ft | 123 kts | 143° |
| 2026-04-21 22:31 | 31.69446 | -82.93802 | 5000 ft | 123 kts | 143° |
| 2026-04-21 22:31 | 31.68763 | -82.93187 | 5000 ft | 123 kts | 143° |
| 2026-04-21 22:32 | 31.68085 | -82.92577 | 5000 ft | 123 kts | 143° |
| 2026-04-21 22:32 | 31.67405 | -82.91966 | 5000 ft | 123 kts | 143° |
| 2026-04-21 22:32 | 31.66723 | -82.91353 | 5000 ft | 123 kts | 143° |
| 2026-04-21 22:32 | 31.66052 | -82.90749 | 5000 ft | 123 kts | 143° |
| 2026-04-21 22:33 | 31.65371 | -82.90137 | 5000 ft | 123 kts | 143° |
| 2026-04-21 22:33 | 31.64690 | -82.89525 | 5000 ft | 123 kts | 143° |
| 2026-04-21 22:33 | 31.64010 | -82.88914 | 5000 ft | 123 kts | 143° |
| 2026-04-21 22:33 | 31.63321 | -82.88295 | 5000 ft | 123 kts | 143° |
| 2026-04-21 22:34 | 31.62645 | -82.87688 | 5000 ft | 123 kts | 143° |
| 2026-04-21 22:34 | 31.61965 | -82.87076 | 5000 ft | 123 kts | 143° |
| 2026-04-21 22:34 | 31.61286 | -82.86467 | 5000 ft | 123 kts | 143° |
| 2026-04-21 22:34 | 31.60606 | -82.85856 | 5000 ft | 123 kts | 143° |
| 2026-04-21 22:35 | 31.59924 | -82.85245 | 5000 ft | 123 kts | 143° |
| 2026-04-21 22:35 | 31.59243 | -82.84633 | 5018 ft | 123 kts | 143° |
| 2026-04-21 22:35 | 31.58546 | -82.84008 | 5010 ft | 131 kts | 143° |
| 2026-04-21 22:35 | 31.57808 | -82.83358 | 4971 ft | 129 kts | 143° |
| 2026-04-21 22:36 | 31.56428 | -82.82121 | 4997 ft | 124 kts | 142° |
| 2026-04-21 22:36 | 31.55735 | -82.81495 | 4999 ft | 123 kts | 142° |
| 2026-04-21 22:36 | 31.55064 | -82.80890 | 5000 ft | 123 kts | 143° |
| 2026-04-21 22:37 | 31.54385 | -82.80279 | 5000 ft | 123 kts | 143° |
| 2026-04-21 22:37 | 31.53703 | -82.79667 | 5000 ft | 123 kts | 143° |
| 2026-04-21 22:37 | 31.53023 | -82.79057 | 5000 ft | 123 kts | 143° |
| 2026-04-21 22:37 | 31.52343 | -82.78447 | 5000 ft | 123 kts | 143° |
| 2026-04-21 22:38 | 31.51660 | -82.77835 | 5000 ft | 123 kts | 143° |
| 2026-04-21 22:38 | 31.50981 | -82.77227 | 5000 ft | 123 kts | 143° |
| 2026-04-21 22:38 | 31.50304 | -82.76621 | 5000 ft | 123 kts | 143° |
| 2026-04-21 22:38 | 31.49618 | -82.76007 | 5000 ft | 122 kts | 143° |
| 2026-04-21 22:39 | 31.48948 | -82.75409 | 4996 ft | 120 kts | 143° |
| 2026-04-21 22:39 | 31.48293 | -82.74821 | 4996 ft | 118 kts | 143° |
| 2026-04-21 22:39 | 31.47644 | -82.74236 | 4997 ft | 117 kts | 142° |
| 2026-04-21 22:39 | 31.47210 | -82.73845 | 4998 ft | 117 kts | 142° |
| 2026-04-21 22:40 | 31.46359 | -82.73079 | 4999 ft | 116 kts | 143° |
| 2026-04-21 22:40 | 31.45718 | -82.72504 | 5000 ft | 116 kts | 143° |
| 2026-04-21 22:40 | 31.45078 | -82.71930 | 5000 ft | 116 kts | 143° |
| 2026-04-21 22:40 | 31.44436 | -82.71356 | 5000 ft | 116 kts | 143° |
| 2026-04-21 22:41 | 31.44013 | -82.70977 | 5000 ft | 116 kts | 143° |
| 2026-04-21 22:41 | 31.43371 | -82.70403 | 5000 ft | 116 kts | 143° |
| 2026-04-21 22:41 | 31.42732 | -82.69832 | 5000 ft | 116 kts | 143° |
| 2026-04-21 22:41 | 31.42091 | -82.69259 | 5000 ft | 116 kts | 143° |
| 2026-04-21 22:42 | 31.41449 | -82.68686 | 5000 ft | 116 kts | 143° |
| 2026-04-21 22:42 | 31.40809 | -82.68114 | 5000 ft | 116 kts | 143° |
| 2026-04-21 22:42 | 31.40168 | -82.67542 | 5000 ft | 116 kts | 143° |
| 2026-04-21 22:42 | 31.39526 | -82.66968 | 5000 ft | 116 kts | 143° |
| 2026-04-21 22:43 | 31.38894 | -82.66403 | 5000 ft | 116 kts | 143° |
| 2026-04-21 22:43 | 31.38246 | -82.65825 | 5000 ft | 116 kts | 143° |
| 2026-04-21 22:43 | 31.37610 | -82.65257 | 5000 ft | 116 kts | 143° |
| 2026-04-21 22:43 | 31.36971 | -82.64686 | 5000 ft | 116 kts | 143° |
| 2026-04-21 22:44 | 31.36329 | -82.64114 | 5000 ft | 116 kts | 143° |
| 2026-04-21 22:44 | 31.35691 | -82.63544 | 5000 ft | 116 kts | 143° |
| 2026-04-21 22:44 | 31.35047 | -82.62969 | 5000 ft | 116 kts | 143° |
| 2026-04-21 22:44 | 31.34408 | -82.62398 | 5000 ft | 116 kts | 143° |
| 2026-04-21 22:45 | 31.33767 | -82.61827 | 5000 ft | 116 kts | 143° |
| 2026-04-21 22:45 | 31.33125 | -82.61253 | 5000 ft | 116 kts | 143° |
| 2026-04-21 22:45 | 31.32484 | -82.60680 | 5000 ft | 116 kts | 143° |
| 2026-04-21 22:45 | 31.31844 | -82.60109 | 5000 ft | 116 kts | 143° |
| 2026-04-21 22:46 | 31.31206 | -82.59538 | 5000 ft | 116 kts | 143° |
| 2026-04-21 22:46 | 31.30995 | -82.59350 | 5000 ft | 116 kts | 143° |
| 2026-04-21 22:46 | 31.29299 | -82.57831 | 5000 ft | 116 kts | 143° |
| 2026-04-21 22:47 | 31.28608 | -82.57371 | 4980 ft | 115 kts | 171° |
| 2026-04-21 22:47 | 31.28148 | -82.57443 | 4982 ft | 108 kts | 207° |
| 2026-04-21 22:47 | 31.27842 | -82.57708 | 5008 ft | 102 kts | 228° |
| 2026-04-21 22:47 | 31.27223 | -82.58120 | 4998 ft | 111 kts | 191° |
| 2026-04-21 22:48 | 31.26475 | -82.57896 | 5021 ft | 112 kts | 161° |
| 2026-04-21 22:48 | 31.25734 | -82.57600 | 5009 ft | 114 kts | 165° |
| 2026-04-21 22:48 | 31.24965 | -82.57369 | 5003 ft | 114 kts | 169° |
| 2026-04-21 22:48 | 31.24185 | -82.57181 | 5001 ft | 115 kts | 172° |
| 2026-04-21 22:49 | 31.23396 | -82.57012 | 5002 ft | 115 kts | 173° |
| 2026-04-21 22:49 | 31.22610 | -82.56856 | 5002 ft | 116 kts | 173° |
| 2026-04-21 22:49 | 31.21810 | -82.56701 | 5001 ft | 117 kts | 173° |
| 2026-04-21 22:49 | 31.21008 | -82.56549 | 5001 ft | 117 kts | 173° |
| 2026-04-21 22:50 | 31.20205 | -82.56398 | 5000 ft | 117 kts | 173° |
| 2026-04-21 22:50 | 31.19401 | -82.56246 | 5000 ft | 117 kts | 173° |
| 2026-04-21 22:50 | 31.18593 | -82.56094 | 5000 ft | 117 kts | 173° |
| 2026-04-21 22:50 | 31.17790 | -82.55944 | 5000 ft | 117 kts | 173° |
| 2026-04-21 22:51 | 31.16985 | -82.55792 | 4999 ft | 117 kts | 173° |
| 2026-04-21 22:51 | 31.16193 | -82.55645 | 4995 ft | 113 kts | 174° |
| 2026-04-21 22:51 | 31.15430 | -82.55502 | 4991 ft | 109 kts | 174° |
| 2026-04-21 22:51 | 31.14685 | -82.55360 | 4993 ft | 107 kts | 173° |
| 2026-04-21 22:52 | 31.13958 | -82.55220 | 4995 ft | 105 kts | 173° |
| 2026-04-21 22:52 | 31.13250 | -82.55084 | 4997 ft | 104 kts | 173° |
| 2026-04-21 22:52 | 31.12533 | -82.54947 | 4998 ft | 103 kts | 173° |
| 2026-04-21 22:52 | 31.11834 | -82.54814 | 4999 ft | 103 kts | 174° |
| 2026-04-21 22:53 | 31.11128 | -82.54681 | 4999 ft | 102 kts | 174° |
| 2026-04-21 22:53 | 31.10417 | -82.54547 | 5000 ft | 102 kts | 174° |
| 2026-04-21 22:53 | 31.09721 | -82.54416 | 5000 ft | 102 kts | 174° |
| 2026-04-21 22:53 | 31.09011 | -82.54282 | 5000 ft | 102 kts | 174° |
| 2026-04-21 22:54 | 31.08314 | -82.54151 | 5000 ft | 102 kts | 174° |
| 2026-04-21 22:54 | 31.07603 | -82.54018 | 5000 ft | 102 kts | 174° |
| 2026-04-21 22:54 | 31.06909 | -82.53887 | 5000 ft | 102 kts | 174° |
| 2026-04-21 22:54 | 31.06204 | -82.53755 | 5000 ft | 102 kts | 174° |
| 2026-04-21 22:55 | 31.05499 | -82.53623 | 5000 ft | 102 kts | 174° |
| 2026-04-21 22:55 | 31.04798 | -82.53492 | 5000 ft | 102 kts | 174° |
| 2026-04-21 22:55 | 31.04093 | -82.53359 | 5000 ft | 102 kts | 174° |
| 2026-04-21 22:55 | 31.03391 | -82.53228 | 5000 ft | 102 kts | 174° |
| 2026-04-21 22:56 | 31.02687 | -82.53096 | 5000 ft | 102 kts | 174° |
| 2026-04-21 22:56 | 31.01983 | -82.52964 | 5000 ft | 102 kts | 174° |
| 2026-04-21 22:56 | 31.01278 | -82.52832 | 5000 ft | 102 kts | 174° |
| 2026-04-21 22:56 | 31.00585 | -82.52702 | 5000 ft | 102 kts | 174° |
| 2026-04-21 22:57 | 30.99872 | -82.52568 | 5000 ft | 102 kts | 174° |
| 2026-04-21 22:57 | 30.99178 | -82.52438 | 5000 ft | 102 kts | 174° |
| 2026-04-21 22:57 | 30.98465 | -82.52305 | 5000 ft | 102 kts | 174° |
| 2026-04-21 22:57 | 30.97770 | -82.52175 | 5000 ft | 102 kts | 174° |
| 2026-04-21 22:58 | 30.97067 | -82.52043 | 5000 ft | 102 kts | 174° |
| 2026-04-21 22:58 | 30.96357 | -82.51910 | 5000 ft | 102 kts | 174° |
| 2026-04-21 22:58 | 30.95650 | -82.51778 | 5000 ft | 102 kts | 174° |
| 2026-04-21 22:58 | 30.94948 | -82.51646 | 5000 ft | 102 kts | 174° |
| 2026-04-21 22:59 | 30.94245 | -82.51515 | 5000 ft | 102 kts | 174° |
| 2026-04-21 22:59 | 30.93539 | -82.51383 | 5000 ft | 102 kts | 174° |
| 2026-04-21 22:59 | 30.92835 | -82.51251 | 5000 ft | 102 kts | 174° |
| 2026-04-21 22:59 | 30.92133 | -82.51120 | 5000 ft | 102 kts | 174° |
| 2026-04-21 23:00 | 30.91430 | -82.50988 | 5000 ft | 102 kts | 174° |
| 2026-04-21 23:00 | 30.90725 | -82.50856 | 5000 ft | 102 kts | 174° |
| 2026-04-21 23:00 | 30.90021 | -82.50725 | 5000 ft | 102 kts | 174° |
| 2026-04-21 23:00 | 30.89326 | -82.50595 | 5000 ft | 102 kts | 174° |
| 2026-04-21 23:01 | 30.88622 | -82.50463 | 5000 ft | 102 kts | 174° |
| 2026-04-21 23:01 | 30.87921 | -82.50332 | 5000 ft | 102 kts | 174° |
| 2026-04-21 23:01 | 30.87214 | -82.50200 | 5000 ft | 102 kts | 174° |
| 2026-04-21 23:01 | 30.86511 | -82.50069 | 5000 ft | 102 kts | 174° |
| 2026-04-21 23:02 | 30.85808 | -82.49937 | 5000 ft | 102 kts | 174° |
| 2026-04-21 23:02 | 30.85103 | -82.49806 | 5000 ft | 102 kts | 174° |
| 2026-04-21 23:02 | 30.84399 | -82.49674 | 5000 ft | 102 kts | 174° |
| 2026-04-21 23:02 | 30.83694 | -82.49543 | 5000 ft | 102 kts | 174° |
| 2026-04-21 23:03 | 30.82990 | -82.49411 | 5000 ft | 102 kts | 174° |
| 2026-04-21 23:03 | 30.82295 | -82.49282 | 5000 ft | 102 kts | 174° |
| 2026-04-21 23:03 | 30.81584 | -82.49149 | 5000 ft | 102 kts | 174° |
| 2026-04-21 23:03 | 30.80886 | -82.49019 | 5000 ft | 102 kts | 174° |
| 2026-04-21 23:04 | 30.80181 | -82.48887 | 5000 ft | 102 kts | 174° |
| 2026-04-21 23:04 | 30.79481 | -82.48757 | 5000 ft | 102 kts | 174° |
| 2026-04-21 23:04 | 30.78776 | -82.48625 | 5000 ft | 102 kts | 174° |
| 2026-04-21 23:04 | 30.78071 | -82.48494 | 5000 ft | 102 kts | 174° |
| 2026-04-21 23:05 | 30.77369 | -82.48363 | 5000 ft | 102 kts | 174° |
| 2026-04-21 23:05 | 30.76665 | -82.48232 | 5000 ft | 102 kts | 174° |
| 2026-04-21 23:05 | 30.75961 | -82.48100 | 5000 ft | 102 kts | 174° |
| 2026-04-21 23:05 | 30.75258 | -82.47969 | 5000 ft | 102 kts | 174° |
| 2026-04-21 23:06 | 30.74552 | -82.47838 | 5000 ft | 102 kts | 174° |
| 2026-04-21 23:06 | 30.73848 | -82.47706 | 5000 ft | 102 kts | 174° |
| 2026-04-21 23:06 | 30.73143 | -82.47575 | 5000 ft | 102 kts | 174° |
| 2026-04-21 23:06 | 30.72440 | -82.47444 | 5000 ft | 102 kts | 174° |
| 2026-04-21 23:07 | 30.71744 | -82.47315 | 5000 ft | 102 kts | 174° |
| 2026-04-21 23:07 | 30.71039 | -82.47183 | 5000 ft | 102 kts | 174° |
| 2026-04-21 23:07 | 30.70333 | -82.47052 | 5000 ft | 102 kts | 174° |
| 2026-04-21 23:07 | 30.69629 | -82.46921 | 5000 ft | 102 kts | 174° |
| 2026-04-21 23:08 | 30.68927 | -82.46790 | 5000 ft | 102 kts | 174° |
| 2026-04-21 23:08 | 30.68219 | -82.46658 | 5000 ft | 102 kts | 174° |
| 2026-04-21 23:08 | 30.67515 | -82.46527 | 5000 ft | 102 kts | 174° |
| 2026-04-21 23:08 | 30.66811 | -82.46396 | 5000 ft | 102 kts | 174° |
| 2026-04-21 23:09 | 30.66104 | -82.46265 | 5000 ft | 102 kts | 174° |
| 2026-04-21 23:09 | 30.65400 | -82.46134 | 5000 ft | 102 kts | 174° |
| 2026-04-21 23:09 | 30.64705 | -82.46005 | 5000 ft | 102 kts | 174° |
| 2026-04-21 23:09 | 30.64001 | -82.45874 | 5000 ft | 102 kts | 174° |
| 2026-04-21 23:10 | 30.63289 | -82.45741 | 5000 ft | 102 kts | 174° |
| 2026-04-21 23:10 | 30.62594 | -82.45612 | 5000 ft | 102 kts | 174° |
| 2026-04-21 23:10 | 30.61886 | -82.45481 | 5000 ft | 102 kts | 174° |
| 2026-04-21 23:10 | 30.61182 | -82.45350 | 5000 ft | 102 kts | 174° |
| 2026-04-21 23:11 | 30.60480 | -82.45219 | 5000 ft | 102 kts | 174° |
| 2026-04-21 23:11 | 30.59775 | -82.45088 | 5000 ft | 102 kts | 174° |
| 2026-04-21 23:11 | 30.59069 | -82.44957 | 5000 ft | 102 kts | 174° |
| 2026-04-21 23:11 | 30.58365 | -82.44827 | 5000 ft | 102 kts | 174° |
| 2026-04-21 23:12 | 30.57660 | -82.44696 | 5000 ft | 103 kts | 174° |
| 2026-04-21 23:12 | 30.56958 | -82.44565 | 5000 ft | 103 kts | 174° |
| 2026-04-21 23:12 | 30.56253 | -82.44434 | 5000 ft | 103 kts | 174° |
| 2026-04-21 23:12 | 30.55549 | -82.44304 | 5000 ft | 103 kts | 174° |
| 2026-04-21 23:13 | 30.54843 | -82.44173 | 5000 ft | 103 kts | 174° |
| 2026-04-21 23:13 | 30.54138 | -82.44042 | 5000 ft | 103 kts | 174° |
| 2026-04-21 23:13 | 30.53442 | -82.43913 | 5000 ft | 103 kts | 174° |
| 2026-04-21 23:13 | 30.52728 | -82.43780 | 5000 ft | 103 kts | 174° |
| 2026-04-21 23:14 | 30.52031 | -82.43651 | 5000 ft | 103 kts | 174° |
| 2026-04-21 23:14 | 30.51326 | -82.43520 | 5000 ft | 103 kts | 174° |
| 2026-04-21 23:14 | 30.50624 | -82.43390 | 5000 ft | 103 kts | 174° |
| 2026-04-21 23:14 | 30.49919 | -82.43259 | 5000 ft | 103 kts | 174° |
| 2026-04-21 23:15 | 30.49213 | -82.43129 | 5000 ft | 103 kts | 174° |
| 2026-04-21 23:15 | 30.48508 | -82.42998 | 5000 ft | 103 kts | 174° |
| 2026-04-21 23:15 | 30.47803 | -82.42867 | 5000 ft | 103 kts | 174° |
| 2026-04-21 23:15 | 30.47100 | -82.42737 | 5000 ft | 103 kts | 174° |
| 2026-04-21 23:16 | 30.46394 | -82.42606 | 5000 ft | 103 kts | 174° |
| 2026-04-21 23:16 | 30.45685 | -82.42474 | 5003 ft | 105 kts | 174° |
| 2026-04-21 23:16 | 30.44965 | -82.42341 | 5003 ft | 105 kts | 174° |
| 2026-04-21 23:16 | 30.44242 | -82.42208 | 5001 ft | 105 kts | 174° |
| 2026-04-21 23:17 | 30.43516 | -82.42075 | 5000 ft | 105 kts | 174° |
| 2026-04-21 23:17 | 30.42793 | -82.41941 | 5000 ft | 105 kts | 174° |
| 2026-04-21 23:17 | 30.42069 | -82.41807 | 5000 ft | 105 kts | 174° |
| 2026-04-21 23:17 | 30.41345 | -82.41674 | 5000 ft | 105 kts | 174° |
| 2026-04-21 23:18 | 30.40621 | -82.41540 | 5000 ft | 105 kts | 174° |
| 2026-04-21 23:18 | 30.39895 | -82.41405 | 5000 ft | 105 kts | 174° |
| 2026-04-21 23:18 | 30.39171 | -82.41271 | 5000 ft | 105 kts | 174° |
| 2026-04-21 23:18 | 30.38449 | -82.41138 | 5000 ft | 105 kts | 174° |
| 2026-04-21 23:19 | 30.37724 | -82.41004 | 5000 ft | 105 kts | 174° |
| 2026-04-21 23:19 | 30.37001 | -82.40870 | 5000 ft | 105 kts | 174° |
| 2026-04-21 23:19 | 30.36277 | -82.40736 | 5000 ft | 105 kts | 174° |
| 2026-04-21 23:19 | 30.35552 | -82.40602 | 5000 ft | 105 kts | 174° |
| 2026-04-21 23:20 | 30.34826 | -82.40468 | 5000 ft | 105 kts | 174° |
| 2026-04-21 23:20 | 30.34104 | -82.40335 | 5000 ft | 105 kts | 174° |
| 2026-04-21 23:20 | 30.33387 | -82.40202 | 5000 ft | 105 kts | 174° |
| 2026-04-21 23:20 | 30.32663 | -82.40068 | 5000 ft | 105 kts | 174° |
| 2026-04-21 23:21 | 30.31939 | -82.39935 | 5000 ft | 105 kts | 174° |
| 2026-04-21 23:21 | 30.31215 | -82.39801 | 5000 ft | 105 kts | 174° |
| 2026-04-21 23:21 | 30.30494 | -82.39668 | 5000 ft | 105 kts | 174° |
| 2026-04-21 23:21 | 30.29768 | -82.39534 | 5000 ft | 105 kts | 174° |
| 2026-04-21 23:22 | 30.29041 | -82.39400 | 5000 ft | 105 kts | 174° |
| 2026-04-21 23:22 | 30.28319 | -82.39266 | 5000 ft | 105 kts | 174° |
| 2026-04-21 23:22 | 30.27593 | -82.39133 | 5000 ft | 105 kts | 174° |
| 2026-04-21 23:22 | 30.26870 | -82.38999 | 5000 ft | 105 kts | 174° |
| 2026-04-21 23:23 | 30.26145 | -82.38865 | 5000 ft | 105 kts | 174° |
| 2026-04-21 23:23 | 30.25421 | -82.38732 | 5000 ft | 105 kts | 174° |
| 2026-04-21 23:23 | 30.24703 | -82.38599 | 5000 ft | 105 kts | 174° |
| 2026-04-21 23:23 | 30.24212 | -82.38509 | 5000 ft | 105 kts | 174° |
| 2026-04-21 23:24 | 30.23489 | -82.38376 | 5000 ft | 105 kts | 174° |
| 2026-04-21 23:24 | 30.22766 | -82.38242 | 5000 ft | 105 kts | 174° |
| 2026-04-21 23:24 | 30.22040 | -82.38108 | 5000 ft | 105 kts | 174° |
| 2026-04-21 23:24 | 30.21315 | -82.37975 | 5000 ft | 105 kts | 174° |
| 2026-04-21 23:25 | 30.20591 | -82.37841 | 5000 ft | 105 kts | 174° |
| 2026-04-21 23:25 | 30.19867 | -82.37708 | 5000 ft | 105 kts | 174° |
| 2026-04-21 23:25 | 30.19141 | -82.37574 | 5000 ft | 105 kts | 174° |
| 2026-04-21 23:25 | 30.18417 | -82.37441 | 5000 ft | 105 kts | 174° |
| 2026-04-21 23:26 | 30.17700 | -82.37309 | 5000 ft | 105 kts | 174° |
| 2026-04-21 23:26 | 30.16984 | -82.37178 | 4996 ft | 103 kts | 174° |
| 2026-04-21 23:26 | 30.16285 | -82.37050 | 4992 ft | 100 kts | 174° |
| 2026-04-21 23:26 | 30.15606 | -82.36923 | 4993 ft | 98 kts | 174° |
| 2026-04-21 23:27 | 30.14941 | -82.36799 | 4995 ft | 96 kts | 174° |
| 2026-04-21 23:27 | 30.14281 | -82.36675 | 4997 ft | 95 kts | 174° |
| 2026-04-21 23:27 | 30.13629 | -82.36554 | 4998 ft | 95 kts | 174° |
| 2026-04-21 23:27 | 30.12981 | -82.36433 | 4999 ft | 94 kts | 174° |
| 2026-04-21 23:28 | 30.12334 | -82.36314 | 4999 ft | 94 kts | 174° |
| 2026-04-21 23:28 | 30.11686 | -82.36194 | 5000 ft | 94 kts | 174° |
| 2026-04-21 23:28 | 30.11040 | -82.36075 | 5000 ft | 94 kts | 174° |
| 2026-04-21 23:28 | 30.10396 | -82.35956 | 5000 ft | 94 kts | 174° |
| 2026-04-21 23:29 | 30.09749 | -82.35837 | 5000 ft | 94 kts | 174° |
| 2026-04-21 23:29 | 30.09112 | -82.35720 | 5000 ft | 94 kts | 174° |
| 2026-04-21 23:29 | 30.08465 | -82.35601 | 5000 ft | 94 kts | 174° |
| 2026-04-21 23:29 | 30.07807 | -82.35481 | 5000 ft | 94 kts | 174° |
| 2026-04-21 23:30 | 30.07163 | -82.35362 | 5000 ft | 94 kts | 174° |
| 2026-04-21 23:30 | 30.06518 | -82.35244 | 5000 ft | 94 kts | 174° |
| 2026-04-21 23:30 | 30.05872 | -82.35125 | 5000 ft | 94 kts | 174° |
| 2026-04-21 23:30 | 30.05226 | -82.35006 | 5000 ft | 94 kts | 174° |
| 2026-04-21 23:31 | 30.04588 | -82.34889 | 5000 ft | 94 kts | 174° |
| 2026-04-21 23:31 | 30.03930 | -82.34781 | 4957 ft | 99 kts | 176° |
| 2026-04-21 23:31 | 30.03218 | -82.34678 | 4846 ft | 107 kts | 176° |
| 2026-04-21 23:31 | 30.02456 | -82.34567 | 4712 ft | 113 kts | 175° |
| 2026-04-21 23:32 | 30.01668 | -82.34449 | 4578 ft | 115 kts | 174° |
| 2026-04-21 23:32 | 30.00883 | -82.34327 | 4501 ft | 111 kts | 174° |
| 2026-04-21 23:32 | 30.00136 | -82.34203 | 4484 ft | 105 kts | 173° |
| 2026-04-21 23:32 | 29.99432 | -82.34081 | 4486 ft | 100 kts | 173° |
| 2026-04-21 23:33 | 29.98753 | -82.33962 | 4491 ft | 97 kts | 172° |
| 2026-04-21 23:33 | 29.98090 | -82.33848 | 4494 ft | 96 kts | 173° |
| 2026-04-21 23:33 | 29.97431 | -82.33736 | 4497 ft | 95 kts | 173° |
| 2026-04-21 23:33 | 29.96780 | -82.33627 | 4498 ft | 94 kts | 173° |
| 2026-04-21 23:34 | 29.96132 | -82.33519 | 4499 ft | 94 kts | 173° |
| 2026-04-21 23:34 | 29.95485 | -82.33413 | 4500 ft | 94 kts | 173° |
| 2026-04-21 23:34 | 29.94847 | -82.33308 | 4500 ft | 94 kts | 173° |
| 2026-04-21 23:34 | 29.94200 | -82.33202 | 4500 ft | 94 kts | 173° |
| 2026-04-21 23:35 | 29.93546 | -82.33095 | 4500 ft | 94 kts | 173° |
| 2026-04-21 23:35 | 29.92901 | -82.32990 | 4500 ft | 94 kts | 173° |
| 2026-04-21 23:35 | 29.92258 | -82.32884 | 4500 ft | 94 kts | 173° |
| 2026-04-21 23:35 | 29.91619 | -82.32780 | 4500 ft | 94 kts | 173° |
| 2026-04-21 23:36 | 29.90965 | -82.32673 | 4500 ft | 94 kts | 173° |
| 2026-04-21 23:36 | 29.90319 | -82.32567 | 4500 ft | 94 kts | 173° |
| 2026-04-21 23:36 | 29.89675 | -82.32462 | 4500 ft | 94 kts | 173° |
| 2026-04-21 23:36 | 29.89030 | -82.32357 | 4500 ft | 94 kts | 173° |
| 2026-04-21 23:37 | 29.88391 | -82.32252 | 4500 ft | 94 kts | 173° |
| 2026-04-21 23:37 | 29.87745 | -82.32147 | 4500 ft | 94 kts | 173° |
| 2026-04-21 23:37 | 29.87099 | -82.32041 | 4500 ft | 94 kts | 173° |
| 2026-04-21 23:37 | 29.86454 | -82.31936 | 4500 ft | 94 kts | 173° |
| 2026-04-21 23:38 | 29.85808 | -82.31831 | 4500 ft | 94 kts | 173° |
| 2026-04-21 23:38 | 29.85164 | -82.31725 | 4500 ft | 94 kts | 173° |
| 2026-04-21 23:38 | 29.84517 | -82.31620 | 4500 ft | 94 kts | 173° |
| 2026-04-21 23:38 | 29.83872 | -82.31514 | 4500 ft | 94 kts | 173° |
| 2026-04-21 23:39 | 29.83229 | -82.31409 | 4500 ft | 94 kts | 173° |
| 2026-04-21 23:39 | 29.82582 | -82.31304 | 4500 ft | 94 kts | 173° |
| 2026-04-21 23:39 | 29.81934 | -82.31198 | 4500 ft | 94 kts | 173° |
| 2026-04-21 23:39 | 29.81290 | -82.31093 | 4500 ft | 94 kts | 173° |
| 2026-04-21 23:40 | 29.80647 | -82.30988 | 4493 ft | 93 kts | 173° |
| 2026-04-21 23:40 | 29.79991 | -82.30881 | 4571 ft | 96 kts | 173° |
| 2026-04-21 23:40 | 29.79290 | -82.30770 | 4616 ft | 110 kts | 174° |
| 2026-04-21 23:40 | 29.78486 | -82.30654 | 4561 ft | 120 kts | 175° |
| 2026-04-21 23:41 | 29.77646 | -82.30532 | 4436 ft | 115 kts | 174° |
| 2026-04-21 23:41 | 29.76899 | -82.30410 | 4465 ft | 103 kts | 173° |
| 2026-04-21 23:41 | 29.76221 | -82.30289 | 4483 ft | 98 kts | 172° |
| 2026-04-21 23:41 | 29.75539 | -82.30168 | 4492 ft | 96 kts | 172° |
| 2026-04-21 23:42 | 29.74869 | -82.30053 | 4496 ft | 94 kts | 172° |
| 2026-04-21 23:42 | 29.74226 | -82.29945 | 4498 ft | 94 kts | 173° |
| 2026-04-21 23:42 | 29.73580 | -82.29838 | 4499 ft | 94 kts | 173° |
| 2026-04-21 23:42 | 29.72933 | -82.29732 | 4500 ft | 94 kts | 173° |
| 2026-04-21 23:43 | 29.72282 | -82.29625 | 4500 ft | 94 kts | 173° |
| 2026-04-21 23:43 | 29.71633 | -82.29519 | 4500 ft | 94 kts | 173° |
| 2026-04-21 23:43 | 29.70988 | -82.29414 | 4500 ft | 94 kts | 173° |
| 2026-04-21 23:43 | 29.70341 | -82.29309 | 4500 ft | 94 kts | 173° |
| 2026-04-21 23:44 | 29.69904 | -82.29238 | 4500 ft | 94 kts | 173° |
| 2026-04-21 23:44 | 29.68498 | -82.29009 | 4500 ft | 94 kts | 173° |
| 2026-04-21 23:44 | 29.67846 | -82.28903 | 4500 ft | 94 kts | 173° |
| 2026-04-21 23:45 | 29.67217 | -82.28801 | 4500 ft | 94 kts | 173° |
| 2026-04-21 23:45 | 29.66330 | -82.28656 | 4503 ft | 98 kts | 171° |
| 2026-04-21 23:46 | 29.64191 | -82.28305 | 4515 ft | 125 kts | 173° |
| 2026-04-21 23:46 | 29.63307 | -82.28169 | 4507 ft | 128 kts | 173° |
| 2026-04-21 23:46 | 29.62435 | -82.28035 | 4503 ft | 129 kts | 173° |
| 2026-04-21 23:46 | 29.61526 | -82.27892 | 4501 ft | 130 kts | 173° |
| 2026-04-21 23:47 | 29.60624 | -82.27749 | 4500 ft | 130 kts | 173° |
| 2026-04-21 23:47 | 29.59710 | -82.27602 | 4500 ft | 130 kts | 173° |
| 2026-04-21 23:47 | 29.58825 | -82.27459 | 4500 ft | 130 kts | 173° |
| 2026-04-21 23:47 | 29.57919 | -82.27313 | 4500 ft | 130 kts | 173° |
| 2026-04-21 23:48 | 29.57020 | -82.27167 | 4500 ft | 130 kts | 173° |
| 2026-04-21 23:48 | 29.56121 | -82.27021 | 4500 ft | 130 kts | 173° |
| 2026-04-21 23:48 | 29.55218 | -82.26875 | 4500 ft | 130 kts | 173° |
| 2026-04-21 23:48 | 29.54311 | -82.26728 | 4500 ft | 130 kts | 173° |
| 2026-04-21 23:49 | 29.53427 | -82.26584 | 4500 ft | 130 kts | 173° |
| 2026-04-21 23:49 | 29.52595 | -82.26449 | 4500 ft | 130 kts | 173° |
| 2026-04-21 23:49 | 29.51704 | -82.26305 | 4500 ft | 130 kts | 173° |
| 2026-04-21 23:49 | 29.50795 | -82.26157 | 4500 ft | 130 kts | 173° |
| 2026-04-21 23:50 | 29.50189 | -82.26059 | 4500 ft | 130 kts | 173° |
| 2026-04-21 23:50 | 29.48987 | -82.25864 | 4500 ft | 130 kts | 173° |
| 2026-04-21 23:50 | 29.48092 | -82.25719 | 4500 ft | 130 kts | 173° |
| 2026-04-21 23:50 | 29.47192 | -82.25573 | 4500 ft | 130 kts | 173° |
| 2026-04-21 23:51 | 29.46292 | -82.25427 | 4500 ft | 130 kts | 173° |
| 2026-04-21 23:51 | 29.45394 | -82.25282 | 4500 ft | 130 kts | 173° |
| 2026-04-21 23:51 | 29.44801 | -82.25186 | 4500 ft | 130 kts | 173° |
| 2026-04-21 23:51 | 29.43604 | -82.24992 | 4500 ft | 130 kts | 173° |
| 2026-04-21 23:52 | 29.42999 | -82.24894 | 4500 ft | 130 kts | 173° |
| 2026-04-21 23:52 | 29.41805 | -82.24701 | 4500 ft | 130 kts | 173° |
| 2026-04-21 23:52 | 29.41200 | -82.24603 | 4500 ft | 130 kts | 173° |
| 2026-04-21 23:52 | 29.40301 | -82.24457 | 4500 ft | 130 kts | 173° |
| 2026-04-21 23:53 | 29.39403 | -82.24312 | 4500 ft | 130 kts | 173° |
| 2026-04-21 23:53 | 29.38505 | -82.24167 | 4500 ft | 130 kts | 173° |
| 2026-04-21 23:53 | 29.37608 | -82.24022 | 4500 ft | 130 kts | 173° |
| 2026-04-21 23:53 | 29.36708 | -82.23876 | 4500 ft | 130 kts | 173° |
| 2026-04-21 23:54 | 29.35813 | -82.23731 | 4500 ft | 130 kts | 173° |
| 2026-04-21 23:54 | 29.34910 | -82.23585 | 4500 ft | 130 kts | 173° |
| 2026-04-21 23:54 | 29.34014 | -82.23441 | 4500 ft | 130 kts | 173° |
| 2026-04-21 23:54 | 29.33114 | -82.23295 | 4500 ft | 130 kts | 173° |
| 2026-04-21 23:55 | 29.32200 | -82.23148 | 4500 ft | 130 kts | 173° |
| 2026-04-21 23:55 | 29.31305 | -82.23003 | 4500 ft | 130 kts | 173° |
| 2026-04-21 23:55 | 29.30403 | -82.22857 | 4500 ft | 130 kts | 173° |
| 2026-04-21 23:55 | 29.29456 | -82.22704 | 4500 ft | 130 kts | 173° |
| 2026-04-21 23:56 | 29.27630 | -82.22409 | 4500 ft | 130 kts | 173° |
| 2026-04-21 23:56 | 29.25833 | -82.22120 | 4500 ft | 130 kts | 173° |
| 2026-04-21 23:56 | 29.24060 | -82.21834 | 4500 ft | 130 kts | 173° |
| 2026-04-21 23:56 | 29.22235 | -82.21539 | 4500 ft | 130 kts | 173° |
| 2026-04-21 23:57 | 29.20443 | -82.21250 | 4500 ft | 130 kts | 173° |
| 2026-04-21 23:57 | 29.18653 | -82.20962 | 4500 ft | 130 kts | 173° |
| 2026-04-21 23:57 | 29.16863 | -82.20673 | 4500 ft | 130 kts | 173° |
| 2026-04-21 23:57 | 29.15458 | -82.20447 | 4500 ft | 130 kts | 173° |
| 2026-04-21 23:58 | 29.14560 | -82.20303 | 4500 ft | 130 kts | 173° |
| 2026-04-21 23:58 | 29.13662 | -82.20157 | 4500 ft | 131 kts | 173° |
| 2026-04-21 23:58 | 29.12761 | -82.19907 | 4424 ft | 136 kts | 165° |
| 2026-04-21 23:58 | 29.11834 | -82.19596 | 4295 ft | 141 kts | 164° |
| 2026-04-21 23:59 | 29.10880 | -82.19277 | 4146 ft | 144 kts | 164° |
| 2026-04-21 23:59 | 29.09915 | -82.18960 | 4033 ft | 143 kts | 164° |
| 2026-04-21 23:59 | 29.08974 | -82.18651 | 3998 ft | 138 kts | 164° |
| 2026-04-21 23:59 | 29.08066 | -82.18348 | 3994 ft | 134 kts | 163° |
| 2026-04-22 00:00 | 29.07182 | -82.18051 | 3996 ft | 131 kts | 163° |
| 2026-04-22 00:00 | 29.06308 | -82.17759 | 3998 ft | 130 kts | 163° |
| 2026-04-22 00:00 | 29.05442 | -82.17470 | 3999 ft | 130 kts | 163° |
| 2026-04-22 00:00 | 29.04574 | -82.17183 | 3999 ft | 129 kts | 164° |
| 2026-04-22 00:01 | 29.03712 | -82.16899 | 4000 ft | 129 kts | 164° |
| 2026-04-22 00:01 | 29.02846 | -82.16615 | 4000 ft | 129 kts | 164° |
| 2026-04-22 00:01 | 29.01982 | -82.16332 | 4000 ft | 129 kts | 164° |
| 2026-04-22 00:01 | 29.01112 | -82.16078 | 3993 ft | 129 kts | 172° |
| 2026-04-22 00:02 | 29.00236 | -82.16231 | 4013 ft | 127 kts | 195° |
| 2026-04-22 00:02 | 28.99394 | -82.16504 | 4006 ft | 128 kts | 197° |
| 2026-04-22 00:02 | 28.98534 | -82.16791 | 4001 ft | 128 kts | 197° |
| 2026-04-22 00:02 | 28.97678 | -82.17078 | 4000 ft | 128 kts | 197° |
| 2026-04-22 00:03 | 28.96818 | -82.17365 | 4000 ft | 128 kts | 197° |
| 2026-04-22 00:03 | 28.95962 | -82.17652 | 4000 ft | 128 kts | 197° |
| 2026-04-22 00:03 | 28.95105 | -82.17938 | 4000 ft | 128 kts | 197° |
| 2026-04-22 00:03 | 28.94245 | -82.18226 | 4000 ft | 128 kts | 197° |
| 2026-04-22 00:04 | 28.93387 | -82.18513 | 4000 ft | 128 kts | 197° |
| 2026-04-22 00:04 | 28.92541 | -82.18796 | 4000 ft | 128 kts | 197° |
| 2026-04-22 00:04 | 28.91690 | -82.19080 | 4000 ft | 128 kts | 197° |
| 2026-04-22 00:04 | 28.90825 | -82.19369 | 4000 ft | 128 kts | 197° |
| 2026-04-22 00:05 | 28.89970 | -82.19655 | 4000 ft | 128 kts | 197° |
| 2026-04-22 00:05 | 28.89112 | -82.19942 | 4000 ft | 128 kts | 197° |
| 2026-04-22 00:05 | 28.88254 | -82.20229 | 4000 ft | 128 kts | 197° |
| 2026-04-22 00:05 | 28.87398 | -82.20515 | 4000 ft | 128 kts | 197° |
| 2026-04-22 00:06 | 28.86541 | -82.20801 | 4000 ft | 128 kts | 197° |
| 2026-04-22 00:06 | 28.85684 | -82.21088 | 4000 ft | 128 kts | 197° |
| 2026-04-22 00:06 | 28.84828 | -82.21373 | 4000 ft | 128 kts | 197° |
| 2026-04-22 00:06 | 28.83969 | -82.21660 | 4000 ft | 128 kts | 197° |
| 2026-04-22 00:07 | 28.83112 | -82.21947 | 4000 ft | 128 kts | 197° |
| 2026-04-22 00:07 | 28.82257 | -82.22232 | 4000 ft | 128 kts | 197° |
| 2026-04-22 00:07 | 28.81399 | -82.22517 | 4000 ft | 128 kts | 197° |
| 2026-04-22 00:07 | 28.80515 | -82.22454 | 3999 ft | 128 kts | 158° |
| 2026-04-22 00:08 | 28.79738 | -82.21982 | 4012 ft | 128 kts | 149° |
| 2026-04-22 00:08 | 28.78962 | -82.21469 | 4003 ft | 129 kts | 150° |
| 2026-04-22 00:08 | 28.78174 | -82.20976 | 4000 ft | 129 kts | 151° |
| 2026-04-22 00:08 | 28.77377 | -82.20499 | 4000 ft | 129 kts | 152° |
| 2026-04-22 00:09 | 28.76576 | -82.20032 | 4000 ft | 129 kts | 153° |
| 2026-04-22 00:09 | 28.75785 | -82.19576 | 4000 ft | 129 kts | 153° |
| 2026-04-22 00:09 | 28.74980 | -82.19116 | 4000 ft | 129 kts | 153° |
| 2026-04-22 00:09 | 28.74178 | -82.18659 | 4000 ft | 129 kts | 153° |
| 2026-04-22 00:10 | 28.73372 | -82.18201 | 4000 ft | 129 kts | 153° |
| 2026-04-22 00:10 | 28.72570 | -82.17746 | 4000 ft | 129 kts | 153° |
| 2026-04-22 00:10 | 28.71771 | -82.17292 | 4000 ft | 129 kts | 153° |
| 2026-04-22 00:10 | 28.70959 | -82.16831 | 4000 ft | 129 kts | 153° |
| 2026-04-22 00:11 | 28.70157 | -82.16377 | 4000 ft | 129 kts | 153° |
| 2026-04-22 00:11 | 28.69353 | -82.15921 | 4000 ft | 129 kts | 153° |
| 2026-04-22 00:11 | 28.68549 | -82.15465 | 4000 ft | 129 kts | 153° |
| 2026-04-22 00:11 | 28.67743 | -82.15008 | 4000 ft | 129 kts | 153° |
| 2026-04-22 00:12 | 28.66938 | -82.14552 | 4000 ft | 129 kts | 153° |
| 2026-04-22 00:12 | 28.66135 | -82.14097 | 4000 ft | 129 kts | 153° |
| 2026-04-22 00:12 | 28.65330 | -82.13641 | 4000 ft | 129 kts | 153° |
| 2026-04-22 00:12 | 28.64524 | -82.13184 | 4000 ft | 129 kts | 153° |
| 2026-04-22 00:13 | 28.63720 | -82.12729 | 4000 ft | 129 kts | 153° |
| 2026-04-22 00:13 | 28.62902 | -82.12265 | 3922 ft | 134 kts | 153° |
| 2026-04-22 00:13 | 28.62047 | -82.11786 | 3787 ft | 139 kts | 154° |
| 2026-04-22 00:13 | 28.61165 | -82.11295 | 3646 ft | 142 kts | 154° |
| 2026-04-22 00:14 | 28.60286 | -82.10806 | 3504 ft | 142 kts | 154° |
| 2026-04-22 00:14 | 28.59387 | -82.10303 | 3359 ft | 142 kts | 154° |
| 2026-04-22 00:14 | 28.58506 | -82.09808 | 3209 ft | 142 kts | 154° |
| 2026-04-22 00:14 | 28.57609 | -82.09303 | 3068 ft | 142 kts | 154° |
| 2026-04-22 00:15 | 28.56739 | -82.08811 | 3004 ft | 137 kts | 153° |
| 2026-04-22 00:15 | 28.55899 | -82.08332 | 2994 ft | 132 kts | 153° |
| 2026-04-22 00:15 | 28.55095 | -82.07869 | 2995 ft | 130 kts | 153° |
| 2026-04-22 00:15 | 28.54297 | -82.07410 | 2998 ft | 128 kts | 153° |
| 2026-04-22 00:16 | 28.53496 | -82.06951 | 2999 ft | 127 kts | 153° |
| 2026-04-22 00:16 | 28.52702 | -82.06499 | 2999 ft | 127 kts | 153° |
| 2026-04-22 00:16 | 28.51914 | -82.06051 | 3000 ft | 127 kts | 153° |
| 2026-04-22 00:16 | 28.51123 | -82.05603 | 3000 ft | 127 kts | 153° |
| 2026-04-22 00:17 | 28.50330 | -82.05155 | 3000 ft | 127 kts | 153° |
| 2026-04-22 00:17 | 28.49547 | -82.04712 | 3000 ft | 127 kts | 153° |
| 2026-04-22 00:17 | 28.48749 | -82.04261 | 3000 ft | 127 kts | 153° |
| 2026-04-22 00:17 | 28.47942 | -82.03806 | 3000 ft | 127 kts | 153° |
| 2026-04-22 00:18 | 28.47155 | -82.03362 | 3000 ft | 127 kts | 153° |
| 2026-04-22 00:18 | 28.46362 | -82.02914 | 3000 ft | 127 kts | 153° |
| 2026-04-22 00:18 | 28.45841 | -82.02620 | 3000 ft | 127 kts | 153° |
| 2026-04-22 00:18 | 28.45047 | -82.02172 | 3000 ft | 127 kts | 153° |
| 2026-04-22 00:19 | 28.44242 | -82.01720 | 2953 ft | 125 kts | 154° |
| 2026-04-22 00:19 | 28.43453 | -82.01282 | 2812 ft | 128 kts | 154° |
| 2026-04-22 00:19 | 28.42639 | -82.00830 | 2653 ft | 130 kts | 154° |
| 2026-04-22 00:19 | 28.41830 | -82.00380 | 2489 ft | 132 kts | 154° |
| 2026-04-22 00:20 | 28.40997 | -81.99914 | 2321 ft | 133 kts | 154° |
| 2026-04-22 00:20 | 28.40155 | -81.99443 | 2155 ft | 133 kts | 154° |
| 2026-04-22 00:20 | 28.39335 | -81.98982 | 2035 ft | 130 kts | 154° |
| 2026-04-22 00:20 | 28.38541 | -81.98531 | 1995 ft | 124 kts | 153° |
| 2026-04-22 00:21 | 28.37759 | -81.98080 | 1997 ft | 124 kts | 153° |
| 2026-04-22 00:21 | 28.36997 | -81.97640 | 2000 ft | 124 kts | 153° |
| 2026-04-22 00:21 | 28.36211 | -81.97192 | 2000 ft | 125 kts | 153° |
| 2026-04-22 00:21 | 28.35419 | -81.96743 | 2002 ft | 127 kts | 153° |
| 2026-04-22 00:22 | 28.34636 | -81.96301 | 2002 ft | 128 kts | 153° |
| 2026-04-22 00:22 | 28.34217 | -81.96065 | 2001 ft | 128 kts | 153° |
| 2026-04-22 00:22 | 28.33608 | -81.95719 | 2001 ft | 128 kts | 153° |
| 2026-04-22 00:22 | 28.32801 | -81.95229 | 2000 ft | 128 kts | 151° |
| 2026-04-22 00:23 | 28.32022 | -81.94737 | 2000 ft | 128 kts | 149° |
| 2026-04-22 00:23 | 28.31249 | -81.94204 | 2000 ft | 129 kts | 148° |
| 2026-04-22 00:23 | 28.30490 | -81.93675 | 2000 ft | 129 kts | 148° |
| 2026-04-22 00:23 | 28.29730 | -81.93146 | 2000 ft | 129 kts | 148° |
| 2026-04-22 00:24 | 28.28967 | -81.92613 | 2000 ft | 129 kts | 148° |
| 2026-04-22 00:24 | 28.28188 | -81.92117 | 1991 ft | 126 kts | 155° |
| 2026-04-22 00:24 | 28.27424 | -81.91846 | 1832 ft | 105 kts | 144° |
| 2026-04-22 00:24 | 28.26869 | -81.91443 | 1821 ft | 94 kts | 123° |
| 2026-04-22 00:25 | 28.26299 | -81.91013 | 1955 ft | 99 kts | 146° |
| 2026-04-22 00:25 | 28.25735 | -81.90544 | 1972 ft | 113 kts | 141° |
| 2026-04-22 00:25 | 28.25070 | -81.89903 | 1862 ft | 128 kts | 139° |
| 2026-04-22 00:25 | 28.24383 | -81.89207 | 1733 ft | 135 kts | 138° |
| 2026-04-22 00:26 | 28.23695 | -81.88498 | 1590 ft | 132 kts | 137° |
| 2026-04-22 00:26 | 28.23021 | -81.87789 | 1442 ft | 131 kts | 137° |
| 2026-04-22 00:26 | 28.22345 | -81.87066 | 1291 ft | 130 kts | 136° |
| 2026-04-22 00:26 | 28.21698 | -81.86368 | 1208 ft | 126 kts | 136° |
| 2026-04-22 00:27 | 28.21084 | -81.85697 | 1191 ft | 119 kts | 136° |
| 2026-04-22 00:27 | 28.20504 | -81.85061 | 1188 ft | 113 kts | 136° |
| 2026-04-22 00:27 | 28.19958 | -81.84458 | 1189 ft | 106 kts | 136° |
| 2026-04-22 00:27 | 28.19436 | -81.83884 | 1193 ft | 104 kts | 135° |
| 2026-04-22 00:28 | 28.18915 | -81.83311 | 1198 ft | 103 kts | 136° |
| 2026-04-22 00:28 | 28.18409 | -81.82762 | 1194 ft | 100 kts | 136° |
| 2026-04-22 00:28 | 28.17915 | -81.82224 | 1195 ft | 98 kts | 135° |
| 2026-04-22 00:28 | 28.17431 | -81.81694 | 1197 ft | 97 kts | 135° |
| 2026-04-22 00:29 | 28.16926 | -81.81137 | 1205 ft | 101 kts | 135° |
| 2026-04-22 00:29 | 28.16258 | -81.80858 | 1188 ft | 105 kts | 186° |
| 2026-04-22 00:29 | 28.15602 | -81.81193 | 1233 ft | 103 kts | 205° |
| 2026-04-22 00:29 | 28.14951 | -81.81548 | 1220 ft | 107 kts | 198° |
| 2026-04-22 00:30 | 28.14238 | -81.81841 | 1205 ft | 109 kts | 199° |
| 2026-04-22 00:30 | 28.13524 | -81.82158 | 1202 ft | 110 kts | 199° |
| 2026-04-22 00:30 | 28.12806 | -81.82470 | 1201 ft | 111 kts | 200° |
| 2026-04-22 00:30 | 28.12142 | -81.82924 | 1195 ft | 112 kts | 219° |
| 2026-04-22 00:31 | 28.11709 | -81.83644 | 1208 ft | 111 kts | 242° |
| 2026-04-22 00:31 | 28.11361 | -81.84434 | 1208 ft | 112 kts | 243° |
| 2026-04-22 00:31 | 28.11029 | -81.85236 | 1203 ft | 112 kts | 243° |
| 2026-04-22 00:31 | 28.10699 | -81.86054 | 1201 ft | 113 kts | 246° |
| 2026-04-22 00:32 | 28.10377 | -81.86860 | 1201 ft | 113 kts | 245° |
| 2026-04-22 00:32 | 28.10060 | -81.87680 | 1201 ft | 114 kts | 246° |
| 2026-04-22 00:32 | 28.09754 | -81.88513 | 1203 ft | 115 kts | 248° |
| 2026-04-22 00:32 | 28.09446 | -81.89356 | 1203 ft | 117 kts | 247° |
| 2026-04-22 00:33 | 28.09126 | -81.90211 | 1194 ft | 118 kts | 246° |
| 2026-04-22 00:33 | 28.08788 | -81.91046 | 1203 ft | 115 kts | 246° |
| 2026-04-22 00:33 | 28.08470 | -81.91878 | 1211 ft | 117 kts | 246° |
| 2026-04-22 00:33 | 28.08190 | -81.92747 | 1193 ft | 119 kts | 258° |
| 2026-04-22 00:34 | 28.08092 | -81.93673 | 1182 ft | 119 kts | 262° |
| 2026-04-22 00:34 | 28.07941 | -81.94597 | 1200 ft | 118 kts | 257° |
| 2026-04-22 00:34 | 28.07746 | -81.95477 | 1199 ft | 117 kts | 254° |
| 2026-04-22 00:34 | 28.07588 | -81.96073 | 1199 ft | 116 kts | 252° |
| 2026-04-22 00:35 | 28.07320 | -81.96950 | 1199 ft | 116 kts | 250° |
| 2026-04-22 00:35 | 28.07051 | -81.97827 | 1200 ft | 116 kts | 251° |
| 2026-04-22 00:35 | 28.06805 | -81.98717 | 1200 ft | 116 kts | 253° |
| 2026-04-22 00:35 | 28.06539 | -81.99562 | 1200 ft | 115 kts | 248° |
| 2026-04-22 00:36 | 28.06069 | -82.00286 | 1222 ft | 113 kts | 229° |
| 2026-04-22 00:36 | 28.05585 | -82.00991 | 1213 ft | 115 kts | 233° |
| 2026-04-22 00:36 | 28.05076 | -82.01690 | 1202 ft | 115 kts | 228° |
| 2026-04-22 00:36 | 28.04581 | -82.02321 | 1200 ft | 115 kts | 228° |
| 2026-04-22 00:37 | 28.04104 | -82.03035 | 1199 ft | 115 kts | 238° |
| 2026-04-22 00:37 | 28.03598 | -82.03718 | 1154 ft | 118 kts | 206° |
| 2026-04-22 00:37 | 28.02834 | -82.03576 | 1200 ft | 111 kts | 149° |
| 2026-04-22 00:37 | 28.02182 | -82.03137 | 1224 ft | 108 kts | 150° |
| 2026-04-22 00:38 | 28.01509 | -82.02759 | 1190 ft | 107 kts | 163° |
| 2026-04-22 00:38 | 28.00801 | -82.02550 | 1158 ft | 104 kts | 166° |
| 2026-04-22 00:38 | 28.00307 | -82.02416 | 1109 ft | 101 kts | 167° |
| 2026-04-22 00:38 | 27.99690 | -82.02528 | 945 ft | 107 kts | 224° |
| 2026-04-22 00:39 | 27.99664 | -82.03373 | 666 ft | 110 kts | 276° |
| 2026-04-22 00:39 | 27.99675 | -82.04172 | 575 ft | 96 kts | 269° |
| 2026-04-22 00:39 | 27.99636 | -82.04856 | 503 ft | 83 kts | 253° |
| 2026-04-22 00:39 | 27.99138 | -82.05035 | 301 ft | 83 kts | 152° |
| 2026-04-22 00:40 | 27.99072 | -82.04477 | 274 ft | 67 kts | 86° |
| 2026-04-22 00:40 | 27.99039 | -82.03897 | 233 ft | 77 kts | 90° |
| 2026-04-22 00:40 | 27.99037 | -82.03263 | 197 ft | 75 kts | 91° |
| 2026-04-22 00:40 | 27.99042 | -82.02785 | 160 ft | 57 kts | 83° |
| 2026-04-22 00:41 | 27.99041 | -82.02270 | 154 ft | 66 kts | 91° |
| 2026-04-22 00:41 | 27.99042 | -82.01876 | 145 ft | 40 kts | 91° |
| 2026-04-22 00:41 | 27.99042 | -82.01543 | 145 ft | 47 kts | 89° |
| 2026-04-22 00:41 | 27.99043 | -82.01174 | 145 ft | 47 kts | 90° |
| 2026-04-22 00:42 | 27.99045 | -82.00862 | 145 ft | 20 kts | 89° |
| 2026-04-22 00:42 | 27.99006 | -82.00769 | 145 ft | 13 kts | 180° |
| 2026-04-22 00:42 | 27.98915 | -82.00766 | 145 ft | 13 kts | 178° |
| 2026-04-22 00:42 | 27.98796 | -82.00756 | 145 ft | 7 kts | 175° |
| 2026-04-22 00:43 | 27.98753 | -82.00765 | 145 ft | 7 kts | 219° |
| 2026-04-22 00:43 | 27.98737 | -82.00814 | 145 ft | 7 kts | 270° |
| 2026-04-22 00:43 | 27.98734 | -82.00911 | 145 ft | 13 kts | 269° |
| 2026-04-22 00:43 | 27.98733 | -82.01014 | 145 ft | 13 kts | 269° |
| 2026-04-22 00:44 | 27.98732 | -82.01120 | 145 ft | 13 kts | 270° |
| 2026-04-22 00:44 | 27.98732 | -82.01224 | 145 ft | 13 kts | 270° |
| 2026-04-22 00:44 | 27.98711 | -82.01278 | 145 ft | 7 kts | 182° |
| 2026-04-22 00:44 | 27.98665 | -82.01276 | 145 ft | 7 kts | 182° |
| 2026-04-22 00:45 | 27.98643 | -82.01280 | 145 ft | 0 kts | 193° |
| 2026-04-22 00:47 | 27.98642 | -82.01280 | 145 ft | 0 kts | 193° |
| 2026-04-22 00:48 | 27.98641 | -82.01280 | 145 ft | 0 kts | 192° |